Wetterdaten: Freitag, 14.09.2012
Datum Zeit Temperatur Luftfeuchte Luftdruck Regen Wind Richtung Richtung Sonnenschein Taupunkt Windchill
14.09.2012 00:04 9,8 C 78 % 1018,7 hPa 0,0 l/m 0,0 km/h (0 Bft) W 275 0 min 6,1 C 9,8 C
14.09.2012 00:09 9,8 C 78 % 1017,7 hPa 0,0 l/m 0,0 km/h (0 Bft) W 265 0 min 6,1 C 9,8 C
14.09.2012 00:14 9,7 C 78 % 1017,7 hPa 0,0 l/m 0,0 km/h (0 Bft) W 265 0 min 6,1 C 9,7 C
14.09.2012 00:19 9,7 C 78 % 1017,7 hPa 0,0 l/m 0,0 km/h (0 Bft) W 260 0 min 6,1 C 9,7 C
14.09.2012 00:24 9,7 C 77 % 1017,7 hPa 0,0 l/m 0,0 km/h (0 Bft) W 260 0 min 5,9 C 9,7 C
14.09.2012 00:29 9,6 C 77 % 1017,7 hPa 0,0 l/m 0,0 km/h (0 Bft) W 260 0 min 5,8 C 9,6 C
14.09.2012 00:34 9,6 C 77 % 1017,7 hPa 0,0 l/m 0,0 km/h (0 Bft) W 260 0 min 5,8 C 9,6 C
14.09.2012 00:39 9,5 C 77 % 1017,7 hPa 0,0 l/m 0,0 km/h (0 Bft) W 260 0 min 5,7 C 9,5 C
14.09.2012 00:44 9,3 C 76 % 1017,7 hPa 0,0 l/m 0,0 km/h (0 Bft) W 260 0 min 5,3 C 9,3 C
14.09.2012 00:49 9,2 C 76 % 1017,7 hPa 0,0 l/m 0,0 km/h (0 Bft) W 260 0 min 5,2 C 9,2 C
14.09.2012 00:54 9,0 C 76 % 1017,7 hPa 0,0 l/m 0,0 km/h (0 Bft) W 260 0 min 5,0 C 9,0 C
14.09.2012 00:59 8,9 C 77 % 1017,7 hPa 0,0 l/m 0,0 km/h (0 Bft) W 260 0 min 5,1 C 8,9 C
14.09.2012 01:04 8,7 C 77 % 1017,7 hPa 0,0 l/m 0,0 km/h (0 Bft) W 260 0 min 4,9 C 8,7 C
14.09.2012 01:09 8,7 C 77 % 1017,7 hPa 0,0 l/m 0,0 km/h (0 Bft) W 260 0 min 4,9 C 8,7 C
14.09.2012 01:14 8,5 C 77 % 1017,7 hPa 0,0 l/m 0,0 km/h (0 Bft) W 260 0 min 4,7 C 8,5 C
14.09.2012 01:19 8,5 C 77 % 1017,7 hPa 0,0 l/m 0,0 km/h (0 Bft) W 260 0 min 4,7 C 8,5 C
14.09.2012 01:24 8,4 C 77 % 1017,7 hPa 0,0 l/m 0,0 km/h (0 Bft) W 260 0 min 4,6 C 8,4 C
14.09.2012 01:29 8,3 C 77 % 1017,7 hPa 0,0 l/m 0,0 km/h (0 Bft) W 260 0 min 4,5 C 8,3 C
14.09.2012 01:34 8,3 C 77 % 1017,7 hPa 0,0 l/m 0,0 km/h (0 Bft) W 260 0 min 4,5 C 8,3 C
14.09.2012 01:39 8,3 C 77 % 1017,7 hPa 0,0 l/m 0,0 km/h (0 Bft) W 260 0 min 4,5 C 8,3 C
14.09.2012 01:44 8,2 C 77 % 1017,7 hPa 0,0 l/m 0,0 km/h (0 Bft) W 260 0 min 4,4 C 8,2 C
14.09.2012 01:49 8,2 C 77 % 1017,7 hPa 0,0 l/m 0,0 km/h (0 Bft) W 260 0 min 4,4 C 8,2 C
14.09.2012 01:54 8,1 C 78 % 1017,7 hPa 0,0 l/m 0,5 km/h (0 Bft) W 275 0 min 4,5 C 8,1 C
14.09.2012 01:59 8,1 C 78 % 1017,7 hPa 0,0 l/m 3,1 km/h (1 Bft) W 265 0 min 4,5 C 8,1 C
14.09.2012 02:04 8,0 C 78 % 1017,7 hPa 0,0 l/m 0,6 km/h (0 Bft) W 265 0 min 4,4 C 8,0 C
14.09.2012 02:09 8,0 C 78 % 1017,7 hPa 0,0 l/m 0,0 km/h (0 Bft) W 260 0 min 4,4 C 8,0 C
14.09.2012 02:14 8,0 C 78 % 1017,7 hPa 0,0 l/m 0,0 km/h (0 Bft) W 260 0 min 4,4 C 8,0 C
14.09.2012 02:19 8,2 C 78 % 1017,7 hPa 0,0 l/m 0,0 km/h (0 Bft) W 260 0 min 4,6 C 8,2 C
14.09.2012 02:24 8,2 C 78 % 1017,7 hPa 0,0 l/m 0,0 km/h (0 Bft) W 260 0 min 4,6 C 8,2 C
14.09.2012 02:29 8,2 C 78 % 1017,7 hPa 0,0 l/m 0,0 km/h (0 Bft) W 260 0 min 4,6 C 8,2 C
14.09.2012 02:34 8,2 C 78 % 1017,7 hPa 0,0 l/m 0,0 km/h (0 Bft) W 260 0 min 4,6 C 8,2 C
14.09.2012 02:38 8,1 C 78 % 1017,7 hPa 0,0 l/m 0,0 km/h (0 Bft) W 260 0 min 4,5 C 8,1 C
14.09.2012 02:43 8,1 C 78 % 1017,7 hPa 0,0 l/m 0,0 km/h (0 Bft) W 260 0 min 4,5 C 8,1 C
14.09.2012 02:48 8,0 C 78 % 1017,7 hPa 0,0 l/m 0,0 km/h (0 Bft) W 260 0 min 4,4 C 8,0 C
14.09.2012 02:53 7,9 C 79 % 1017,7 hPa 0,0 l/m 0,0 km/h (0 Bft) W 260 0 min 4,5 C 7,9 C
14.09.2012 02:58 7,9 C 79 % 1017,7 hPa 0,0 l/m 0,0 km/h (0 Bft) W 260 0 min 4,5 C 7,9 C
14.09.2012 03:03 7,9 C 79 % 1017,7 hPa 0,0 l/m 0,0 km/h (0 Bft) W 260 0 min 4,5 C 7,9 C
14.09.2012 03:08 7,9 C 79 % 1017,7 hPa 0,0 l/m 0,0 km/h (0 Bft) W 260 0 min 4,5 C 7,9 C
14.09.2012 03:13 7,8 C 79 % 1017,7 hPa 0,0 l/m 0,0 km/h (0 Bft) W 260 0 min 4,4 C 7,8 C
14.09.2012 03:18 7,7 C 79 % 1017,7 hPa 0,0 l/m 0,0 km/h (0 Bft) W 260 0 min 4,3 C 7,7 C
14.09.2012 03:24 7,6 C 79 % 1017,7 hPa 0,0 l/m 0,0 km/h (0 Bft) W 260 0 min 4,2 C 7,6 C
14.09.2012 03:29 7,6 C 79 % 1017,7 hPa 0,0 l/m 0,0 km/h (0 Bft) W 260 0 min 4,2 C 7,6 C
14.09.2012 03:34 7,6 C 79 % 1017,7 hPa 0,0 l/m 0,0 km/h (0 Bft) W 260 0 min 4,2 C 7,6 C
14.09.2012 03:39 7,4 C 79 % 1017,7 hPa 0,0 l/m 0,0 km/h (0 Bft) W 260 0 min 4,0 C 7,4 C
14.09.2012 03:44 7,4 C 79 % 1017,7 hPa 0,0 l/m 0,0 km/h (0 Bft) W 260 0 min 4,0 C 7,4 C
14.09.2012 03:49 7,4 C 79 % 1017,7 hPa 0,0 l/m 0,0 km/h (0 Bft) W 260 0 min 4,0 C 7,4 C
14.09.2012 03:54 7,4 C 79 % 1016,7 hPa 0,0 l/m 0,0 km/h (0 Bft) W 260 0 min 4,0 C 7,4 C
14.09.2012 03:59 7,4 C 79 % 1016,7 hPa 0,0 l/m 0,0 km/h (0 Bft) W 260 0 min 4,0 C 7,4 C
14.09.2012 04:04 7,3 C 79 % 1016,7 hPa 0,0 l/m 0,0 km/h (0 Bft) W 260 0 min 3,9 C 7,3 C
14.09.2012 04:09 7,3 C 79 % 1016,7 hPa 0,0 l/m 0,0 km/h (0 Bft) W 260 0 min 3,9 C 7,3 C
14.09.2012 04:14 7,3 C 79 % 1016,7 hPa 0,0 l/m 0,0 km/h (0 Bft) W-SW 255 0 min 3,9 C 7,3 C
14.09.2012 04:19 7,4 C 79 % 1016,7 hPa 0,0 l/m 0,0 km/h (0 Bft) W 260 0 min 4,0 C 7,4 C
14.09.2012 04:24 7,5 C 79 % 1016,7 hPa 0,0 l/m 0,0 km/h (0 Bft) W 260 0 min 4,1 C 7,5 C
14.09.2012 04:29 7,5 C 79 % 1016,7 hPa 0,0 l/m 0,0 km/h (0 Bft) W 260 0 min 4,1 C 7,5 C
14.09.2012 04:34 7,4 C 79 % 1016,7 hPa 0,0 l/m 0,0 km/h (0 Bft) W-SW 255 0 min 4,0 C 7,4 C
14.09.2012 04:39 7,4 C 79 % 1016,7 hPa 0,0 l/m 0,0 km/h (0 Bft) W 260 0 min 4,0 C 7,4 C
14.09.2012 04:44 7,5 C 79 % 1016,7 hPa 0,0 l/m 0,0 km/h (0 Bft) W 260 0 min 4,1 C 7,5 C
14.09.2012 04:49 7,4 C 79 % 1016,7 hPa 0,0 l/m 0,0 km/h (0 Bft) W 260 0 min 4,0 C 7,4 C
14.09.2012 04:54 7,4 C 79 % 1016,7 hPa 0,0 l/m 0,0 km/h (0 Bft) W 260 0 min 4,0 C 7,4 C
14.09.2012 04:59 7,5 C 79 % 1016,7 hPa 0,0 l/m 0,0 km/h (0 Bft) W 260 0 min 4,1 C 7,5 C
14.09.2012 05:04 7,5 C 79 % 1016,7 hPa 0,0 l/m 0,0 km/h (0 Bft) W 260 0 min 4,1 C 7,5 C
14.09.2012 05:09 7,4 C 79 % 1016,7 hPa 0,0 l/m 0,0 km/h (0 Bft) W-SW 255 0 min 4,0 C 7,4 C
14.09.2012 05:14 7,3 C 79 % 1016,7 hPa 0,0 l/m 0,0 km/h (0 Bft) W-SW 255 0 min 3,9 C 7,3 C
14.09.2012 05:19 7,2 C 79 % 1016,7 hPa 0,0 l/m 0,0 km/h (0 Bft) W-SW 255 0 min 3,8 C 7,2 C
14.09.2012 05:24 7,2 C 79 % 1016,7 hPa 0,0 l/m 0,0 km/h (0 Bft) W-SW 255 0 min 3,8 C 7,2 C
14.09.2012 05:29 7,2 C 79 % 1016,7 hPa 0,0 l/m 0,0 km/h (0 Bft) W-SW 255 0 min 3,8 C 7,2 C
14.09.2012 05:34 7,2 C 80 % 1016,7 hPa 0,0 l/m 0,0 km/h (0 Bft) W-SW 255 0 min 4,0 C 7,2 C
14.09.2012 05:39 7,3 C 80 % 1016,7 hPa 0,0 l/m 0,0 km/h (0 Bft) W 265 0 min 4,1 C 7,3 C
14.09.2012 05:44 7,4 C 80 % 1016,7 hPa 0,0 l/m 0,0 km/h (0 Bft) W 265 0 min 4,2 C 7,4 C
14.09.2012 05:49 7,4 C 80 % 1016,7 hPa 0,0 l/m 0,0 km/h (0 Bft) W 260 0 min 4,2 C 7,4 C
14.09.2012 05:54 7,5 C 80 % 1016,7 hPa 0,0 l/m 0,0 km/h (0 Bft) W 260 0 min 4,3 C 7,5 C
14.09.2012 05:59 7,6 C 80 % 1016,7 hPa 0,0 l/m 0,0 km/h (0 Bft) W 275 0 min 4,4 C 7,6 C
14.09.2012 06:04 7,7 C 80 % 1016,7 hPa 0,0 l/m 0,0 km/h (0 Bft) W 270 0 min 4,5 C 7,7 C
14.09.2012 06:09 8,0 C 79 % 1016,7 hPa 0,0 l/m 0,0 km/h (0 Bft) W 265 0 min 4,6 C 8,0 C
14.09.2012 06:14 8,0 C 79 % 1016,7 hPa 0,0 l/m 0,0 km/h (0 Bft) W 260 0 min 4,6 C 8,0 C
14.09.2012 06:19 8,1 C 79 % 1015,7 hPa 0,0 l/m 0,0 km/h (0 Bft) W 260 0 min 4,7 C 8,1 C
14.09.2012 06:24 8,1 C 79 % 1015,7 hPa 0,0 l/m 0,0 km/h (0 Bft) W 265 0 min 4,7 C 8,1 C
14.09.2012 06:29 8,3 C 80 % 1015,7 hPa 0,0 l/m 0,0 km/h (0 Bft) W 260 0 min 5,1 C 8,3 C
14.09.2012 06:34 8,5 C 80 % 1015,7 hPa 0,0 l/m 0,0 km/h (0 Bft) W 260 0 min 5,3 C 8,5 C
14.09.2012 06:39 8,5 C 80 % 1015,7 hPa 0,0 l/m 0,0 km/h (0 Bft) W 260 0 min 5,3 C 8,5 C
14.09.2012 06:44 8,7 C 80 % 1015,7 hPa 0,0 l/m 0,0 km/h (0 Bft) W 260 0 min 5,4 C 8,7 C
14.09.2012 06:49 8,9 C 80 % 1015,7 hPa 0,0 l/m 0,0 km/h (0 Bft) W-SW 255 0 min 5,6 C 8,9 C
14.09.2012 06:54 9,0 C 79 % 1015,7 hPa 0,0 l/m 0,0 km/h (0 Bft) W 275 0 min 5,6 C 9,0 C
14.09.2012 06:59 9,1 C 80 % 1015,7 hPa 0,0 l/m 0,4 km/h (0 Bft) W-NW 290 0 min 5,8 C 9,1 C
14.09.2012 07:04 9,1 C 81 % 1015,7 hPa 0,0 l/m 0,3 km/h (0 Bft) W 265 0 min 6,0 C 9,1 C
14.09.2012 07:09 9,2 C 82 % 1015,7 hPa 0,0 l/m 3,7 km/h (1 Bft) W 280 0 min 6,3 C 9,2 C
14.09.2012 07:14 9,2 C 83 % 1015,7 hPa 0,0 l/m 9,2 km/h (2 Bft) W-NW 290 0 min 6,5 C 7,2 C
14.09.2012 07:19 9,3 C 84 % 1015,7 hPa 0,0 l/m 11,1 km/h (2 Bft) NW 305 0 min 6,7 C 6,2 C
14.09.2012 07:24 9,4 C 85 % 1015,7 hPa 0,0 l/m 12,5 km/h (3 Bft) NW 310 0 min 7,0 C 5,6 C
14.09.2012 07:29 9,4 C 86 % 1015,7 hPa 0,0 l/m 10,6 km/h (2 Bft) W 275 0 min 7,2 C 6,6 C
14.09.2012 07:34 9,5 C 86 % 1015,7 hPa 0,0 l/m 12,3 km/h (3 Bft) W-NW 285 0 min 7,3 C 5,8 C
14.09.2012 07:39 9,7 C 87 % 1015,7 hPa 0,0 l/m 14,6 km/h (3 Bft) W-NW 290 0 min 7,6 C 4,9 C
14.09.2012 07:44 9,8 C 87 % 1015,7 hPa 0,0 l/m 7,4 km/h (2 Bft) W 280 0 min 7,7 C 9,1 C
14.09.2012 07:49 9,9 C 87 % 1015,7 hPa 0,0 l/m 13,4 km/h (3 Bft) W-NW 295 0 min 7,8 C 5,7 C
14.09.2012 07:54 10,0 C 86 % 1015,7 hPa 0,0 l/m 10,1 km/h (2 Bft) W-SW 255 0 min 7,8 C 7,5 C
14.09.2012 07:59 10,1 C 86 % 1015,7 hPa 0,0 l/m 13,6 km/h (3 Bft) W-NW 285 0 min 7,9 C 5,9 C
14.09.2012 08:04 10,2 C 86 % 1015,7 hPa 0,0 l/m 17,1 km/h (3 Bft) W-NW 285 0 min 8,0 C 4,5 C
14.09.2012 08:09 10,4 C 85 % 1015,7 hPa 0,0 l/m 9,0 km/h (2 Bft) W-NW 285 0 min 8,0 C 8,6 C
14.09.2012 08:14 10,4 C 85 % 1015,7 hPa 0,0 l/m 15,0 km/h (3 Bft) W 275 0 min 8,0 C 5,6 C
14.09.2012 08:19 10,6 C 85 % 1015,7 hPa 0,0 l/m 12,6 km/h (3 Bft) W 275 0 min 8,2 C 6,9 C
14.09.2012 08:24 10,7 C 85 % 1015,7 hPa 0,0 l/m 12,1 km/h (2 Bft) W 260 0 min 8,3 C 7,3 C
14.09.2012 08:29 10,9 C 85 % 1015,7 hPa 0,0 l/m 11,8 km/h (2 Bft) W-SW 250 0 min 8,5 C 7,6 C
14.09.2012 08:34 11,0 C 84 % 1015,7 hPa 0,0 l/m 6,7 km/h (2 Bft) SW 220 0 min 8,4 C 10,8 C
14.09.2012 08:39 11,1 C 83 % 1015,7 hPa 0,0 l/m 6,7 km/h (2 Bft) SW 220 0 min 8,3 C 10,9 C
14.09.2012 08:44 11,1 C 83 % 1015,7 hPa 0,0 l/m 2,1 km/h (1 Bft) W-SW 250 0 min 8,3 C 11,1 C
14.09.2012 08:49 11,2 C 83 % 1015,7 hPa 0,0 l/m 7,4 km/h (2 Bft) SW 230 0 min 8,4 C 10,5 C
14.09.2012 08:53 11,4 C 83 % 1015,7 hPa 0,0 l/m 0,4 km/h (0 Bft) W-SW 240 0 min 8,6 C 11,4 C
14.09.2012 08:58 11,6 C 82 % 1015,7 hPa 0,0 l/m 6,3 km/h (2 Bft) W-SW 240 0 min 8,6 C 11,6 C
14.09.2012 09:03 11,8 C 82 % 1014,7 hPa 0,0 l/m 6,3 km/h (2 Bft) W-SW 250 0 min 8,8 C 11,8 C
14.09.2012 09:08 12,7 C 81 % 1014,7 hPa 0,0 l/m 9,4 km/h (2 Bft) W-SW 245 0 min 9,5 C 10,9 C
14.09.2012 09:13 13,2 C 78 % 1014,7 hPa 0,0 l/m 11,8 km/h (2 Bft) W-SW 250 0 min 9,4 C 10,3 C
14.09.2012 09:18 13,3 C 76 % 1014,7 hPa 0,0 l/m 15,6 km/h (3 Bft) NW 320 0 min 9,2 C 8,9 C
14.09.2012 09:23 13,4 C 75 % 1014,7 hPa 0,0 l/m 15,1 km/h (3 Bft) NW 305 0 min 9,1 C 9,2 C
14.09.2012 09:28 13,7 C 74 % 1014,7 hPa 0,0 l/m 15,1 km/h (3 Bft) NW 305 0 min 9,2 C 9,6 C
14.09.2012 09:33 14,1 C 72 % 1014,7 hPa 0,0 l/m 14,1 km/h (3 Bft) NW 305 0 min 9,1 C 10,4 C
14.09.2012 09:39 14,2 C 72 % 1014,7 hPa 0,0 l/m 13,2 km/h (3 Bft) W 280 0 min 9,2 C 10,9 C
14.09.2012 09:44 14,0 C 70 % 1014,7 hPa 0,0 l/m 17,6 km/h (3 Bft) W-NW 290 0 min 8,6 C 9,1 C
14.09.2012 09:49 14,0 C 70 % 1014,7 hPa 0,0 l/m 15,0 km/h (3 Bft) W-NW 290 0 min 8,6 C 10,0 C
14.09.2012 09:54 13,9 C 71 % 1014,7 hPa 0,0 l/m 12,6 km/h (3 Bft) NW 315 0 min 8,7 C 10,8 C
14.09.2012 09:59 14,2 C 71 % 1014,7 hPa 0,0 l/m 11,0 km/h (2 Bft) W 280 0 min 9,0 C 11,8 C
14.09.2012 10:04 14,4 C 70 % 1014,7 hPa 0,0 l/m 11,3 km/h (2 Bft) W-NW 295 0 min 9,0 C 11,9 C
14.09.2012 10:09 14,2 C 69 % 1014,7 hPa 0,0 l/m 13,1 km/h (3 Bft) W-NW 295 0 min 8,6 C 10,9 C
14.09.2012 10:14 14,3 C 69 % 1014,7 hPa 0,0 l/m 17,1 km/h (3 Bft) W-NW 285 0 min 8,7 C 9,7 C
14.09.2012 10:19 14,5 C 67 % 1014,7 hPa 0,0 l/m 18,5 km/h (3 Bft) NW 320 0 min 8,4 C 9,5 C
14.09.2012 10:24 14,5 C 64 % 1014,7 hPa 0,0 l/m 20,1 km/h (4 Bft) N-NW 345 0 min 7,8 C 9,1 C
14.09.2012 10:29 14,5 C 63 % 1014,7 hPa 0,0 l/m 24,4 km/h (4 Bft) N-NW 345 0 min 7,5 C 8,1 C
14.09.2012 10:34 14,6 C 63 % 1014,7 hPa 0,0 l/m 17,0 km/h (3 Bft) N-NW 340 0 min 7,6 C 10,1 C
14.09.2012 10:39 14,8 C 63 % 1014,7 hPa 0,0 l/m 24,1 km/h (4 Bft) N-NW 330 0 min 7,8 C 8,5 C
14.09.2012 10:44 15,0 C 61 % 1014,7 hPa 0,0 l/m 23,0 km/h (4 Bft) N-NW 340 0 min 7,5 C 9,0 C
14.09.2012 10:49 15,1 C 61 % 1014,7 hPa 0,0 l/m 25,5 km/h (4 Bft) N-NW 345 0 min 7,6 C 8,6 C
14.09.2012 10:54 15,3 C 61 % 1014,7 hPa 0,0 l/m 19,4 km/h (3 Bft) N-NW 340 0 min 7,8 C 10,3 C
14.09.2012 10:59 15,3 C 60 % 1014,7 hPa 0,0 l/m 23,9 km/h (4 Bft) N-NW 345 0 min 7,6 C 9,2 C
14.09.2012 11:04 15,5 C 61 % 1014,7 hPa 0,0 l/m 26,2 km/h (4 Bft) N 350 0 min 8,0 C 9,1 C
14.09.2012 11:09 15,7 C 61 % 1014,7 hPa 0,0 l/m 27,0 km/h (4 Bft) N-NW 340 0 min 8,2 C 9,2 C
14.09.2012 11:14 16,1 C 60 % 1014,7 hPa 0,0 l/m 22,8 km/h (4 Bft) NW 320 0 min 8,3 C 10,5 C
14.09.2012 11:19 16,1 C 58 % 1014,7 hPa 0,0 l/m 29,0 km/h (5 Bft) N 350 0 min 7,8 C 9,4 C
14.09.2012 11:24 15,9 C 59 % 1014,7 hPa 0,0 l/m 28,2 km/h (4 Bft) N 350 0 min 7,9 C 9,2 C
14.09.2012 11:29 15,8 C 59 % 1014,7 hPa 0,0 l/m 35,6 km/h (5 Bft) N 350 0 min 7,8 C 8,0 C
14.09.2012 11:34 16,2 C 58 % 1014,7 hPa 0,0 l/m 23,5 km/h (4 Bft) N 350 0 min 7,9 C 10,5 C
14.09.2012 11:39 16,3 C 57 % 1014,7 hPa 0,0 l/m 31,8 km/h (5 Bft) N-NW 345 0 min 7,8 C 9,2 C
14.09.2012 11:44 16,6 C 56 % 1014,7 hPa 0,0 l/m 28,5 km/h (4 Bft) N 350 0 min 7,8 C 10,2 C
14.09.2012 11:49 16,7 C 55 % 1013,7 hPa 0,0 l/m 29,5 km/h (5 Bft) N 350 0 min 7,6 C 10,2 C
14.09.2012 11:54 16,9 C 55 % 1013,7 hPa 0,0 l/m 26,5 km/h (4 Bft) N-NW 345 0 min 7,8 C 10,9 C
14.09.2012 11:59 17,0 C 53 % 1013,7 hPa 0,0 l/m 30,7 km/h (5 Bft) N-NW 340 0 min 7,4 C 10,4 C
14.09.2012 12:04 16,9 C 52 % 1013,7 hPa 0,0 l/m 35,1 km/h (5 Bft) N-NW 345 0 min 7,0 C 9,7 C
14.09.2012 12:09 16,8 C 52 % 1013,7 hPa 0,0 l/m 28,6 km/h (4 Bft) N-NW 340 0 min 6,9 C 10,4 C
14.09.2012 12:14 16,9 C 52 % 1013,7 hPa 0,0 l/m 29,3 km/h (5 Bft) N 350 0 min 7,0 C 10,5 C
14.09.2012 12:19 17,2 C 52 % 1013,7 hPa 0,0 l/m 30,1 km/h (5 Bft) N 350 0 min 7,3 C 10,8 C
14.09.2012 12:24 17,2 C 52 % 1013,7 hPa 0,0 l/m 29,5 km/h (5 Bft) N-NW 345 0 min 7,3 C 10,9 C
14.09.2012 12:29 17,4 C 51 % 1012,7 hPa 0,0 l/m 28,7 km/h (4 Bft) N-NW 345 0 min 7,2 C 11,3 C
14.09.2012 12:34 17,9 C 51 % 1012,7 hPa 0,0 l/m 23,8 km/h (4 Bft) N 350 0 min 7,6 C 12,7 C
14.09.2012 12:39 17,9 C 49 % 1012,7 hPa 0,0 l/m 23,8 km/h (4 Bft) N 350 0 min 7,0 C 12,7 C
14.09.2012 12:44 18,1 C 48 % 1012,7 hPa 0,0 l/m 35,8 km/h (5 Bft) N-NW 345 0 min 6,9 C 11,3 C
14.09.2012 12:49 18,3 C 48 % 1012,7 hPa 0,0 l/m 24,8 km/h (4 Bft) N 350 0 min 7,1 C 13,1 C
14.09.2012 12:54 18,2 C 48 % 1012,7 hPa 0,0 l/m 27,9 km/h (4 Bft) N-NW 345 0 min 7,0 C 12,5 C
14.09.2012 12:59 18,4 C 48 % 1012,7 hPa 0,0 l/m 28,0 km/h (4 Bft) N 350 0 min 7,2 C 12,7 C
14.09.2012 13:04 18,3 C 47 % 1012,7 hPa 0,0 l/m 24,3 km/h (4 Bft) N 350 0 min 6,8 C 13,2 C
14.09.2012 13:09 18,3 C 47 % 1012,7 hPa 0,0 l/m 24,3 km/h (4 Bft) N 350 0 min 6,8 C 13,2 C
14.09.2012 13:14 18,1 C 48 % 1012,7 hPa 0,0 l/m 25,9 km/h (4 Bft) N 350 0 min 6,9 C 12,7 C
14.09.2012 13:18 17,5 C 49 % 1012,7 hPa 0,0 l/m 25,5 km/h (4 Bft) N-NW 345 0 min 6,7 C 11,9 C
14.09.2012 13:24 17,2 C 50 % 1012,7 hPa 0,0 l/m 29,1 km/h (5 Bft) N 350 0 min 6,7 C 10,9 C
14.09.2012 13:29 17,2 C 51 % 1012,7 hPa 0,0 l/m 23,6 km/h (4 Bft) N-NW 345 0 min 7,0 C 11,8 C
14.09.2012 13:34 17,7 C 51 % 1012,7 hPa 0,0 l/m 26,3 km/h (4 Bft) N 350 0 min 7,4 C 12,0 C
14.09.2012 13:39 18,2 C 50 % 1012,7 hPa 0,0 l/m 28,6 km/h (4 Bft) N-NW 345 0 min 7,6 C 12,4 C
14.09.2012 13:44 18,5 C 50 % 1012,7 hPa 0,0 l/m 21,4 km/h (4 Bft) N-NW 330 0 min 7,9 C 14,0 C
14.09.2012 13:49 18,9 C 47 % 1012,7 hPa 0,0 l/m 27,6 km/h (4 Bft) N-NW 335 0 min 7,3 C 13,5 C
14.09.2012 13:54 19,0 C 46 % 1012,7 hPa 0,0 l/m 29,6 km/h (5 Bft) N 350 0 min 7,1 C 13,4 C
14.09.2012 13:58 19,1 C 46 % 1012,7 hPa 0,0 l/m 25,5 km/h (4 Bft) N-NW 345 0 min 7,2 C 14,1 C
14.09.2012 14:04 18,7 C 46 % 1012,7 hPa 0,0 l/m 26,0 km/h (4 Bft) N 350 0 min 6,8 C 13,5 C
14.09.2012 14:09 18,0 C 47 % 1012,7 hPa 0,0 l/m 25,1 km/h (4 Bft) N 350 0 min 6,5 C 12,7 C
14.09.2012 14:14 18,3 C 48 % 1012,7 hPa 0,0 l/m 26,0 km/h (4 Bft) N-NW 345 0 min 7,1 C 12,9 C
14.09.2012 14:19 18,3 C 47 % 1012,7 hPa 0,0 l/m 24,3 km/h (4 Bft) N-NW 340 0 min 6,8 C 13,2 C
14.09.2012 14:24 18,8 C 47 % 1012,7 hPa 0,0 l/m 27,8 km/h (4 Bft) N-NW 345 0 min 7,2 C 13,3 C
14.09.2012 14:29 18,4 C 47 % 1012,7 hPa 0,0 l/m 24,6 km/h (4 Bft) N-NW 345 0 min 6,9 C 13,3 C
14.09.2012 14:33 18,4 C 47 % 1012,7 hPa 0,0 l/m 23,5 km/h (4 Bft) N 350 0 min 6,9 C 13,5 C
14.09.2012 14:39 18,2 C 47 % 1012,7 hPa 0,0 l/m 21,3 km/h (4 Bft) N-NW 345 0 min 6,7 C 13,6 C
14.09.2012 14:44 18,0 C 47 % 1012,7 hPa 0,0 l/m 25,3 km/h (4 Bft) N-NW 345 0 min 6,5 C 12,6 C
14.09.2012 14:49 17,8 C 48 % 1011,7 hPa 0,0 l/m 23,4 km/h (4 Bft) N-NW 345 0 min 6,6 C 12,7 C
14.09.2012 14:54 18,6 C 47 % 1011,7 hPa 0,0 l/m 30,0 km/h (5 Bft) N-NW 345 0 min 7,1 C 12,7 C
14.09.2012 14:59 19,3 C 45 % 1011,7 hPa 0,0 l/m 28,5 km/h (4 Bft) N-NW 340 0 min 7,1 C 13,9 C
14.09.2012 15:04 19,7 C 44 % 1011,7 hPa 0,0 l/m 24,4 km/h (4 Bft) N-NW 345 0 min 7,1 C 15,1 C
14.09.2012 15:09 19,8 C 42 % 1011,7 hPa 0,0 l/m 29,5 km/h (5 Bft) N-NW 335 0 min 6,5 C 14,5 C
14.09.2012 15:14 19,8 C 42 % 1011,7 hPa 0,0 l/m 29,4 km/h (5 Bft) N-NW 340 0 min 6,5 C 14,5 C
14.09.2012 15:19 20,1 C 42 % 1011,7 hPa 0,0 l/m 21,8 km/h (4 Bft) N-NW 340 0 min 6,8 C 16,0 C
14.09.2012 15:24 20,0 C 42 % 1011,7 hPa 0,0 l/m 26,5 km/h (4 Bft) N-NW 340 0 min 6,7 C 15,2 C
14.09.2012 15:29 19,4 C 42 % 1011,7 hPa 0,0 l/m 29,1 km/h (5 Bft) N-NW 345 0 min 6,2 C 14,0 C
14.09.2012 15:34 18,8 C 43 % 1011,7 hPa 0,0 l/m 28,5 km/h (4 Bft) N-NW 340 0 min 6,0 C 13,2 C
14.09.2012 15:39 18,9 C 43 % 1011,7 hPa 0,0 l/m 31,7 km/h (5 Bft) N-NW 340 0 min 6,0 C 13,0 C
14.09.2012 15:44 19,1 C 42 % 1011,7 hPa 0,0 l/m 26,8 km/h (4 Bft) N-NW 340 0 min 5,9 C 13,9 C
14.09.2012 15:49 18,7 C 44 % 1011,7 hPa 0,0 l/m 34,1 km/h (5 Bft) N-NW 340 0 min 6,2 C 12,4 C
14.09.2012 15:54 18,7 C 44 % 1011,7 hPa 0,0 l/m 23,2 km/h (4 Bft) N-NW 335 0 min 6,2 C 13,9 C
14.09.2012 15:59 18,6 C 45 % 1011,7 hPa 0,0 l/m 25,2 km/h (4 Bft) N-NW 345 0 min 6,4 C 13,5 C
14.09.2012 16:04 18,7 C 45 % 1011,7 hPa 0,0 l/m 25,2 km/h (4 Bft) N-NW 345 0 min 6,5 C 13,6 C
14.09.2012 16:09 18,8 C 44 % 1011,7 hPa 0,0 l/m 25,2 km/h (4 Bft) N-NW 345 0 min 6,3 C 13,7 C
14.09.2012 16:14 18,5 C 45 % 1011,7 hPa 0,0 l/m 25,5 km/h (4 Bft) N-NW 330 0 min 6,3 C 13,3 C
14.09.2012 16:19 18,0 C 45 % 1011,7 hPa 0,0 l/m 35,6 km/h (5 Bft) N-NW 330 0 min 5,9 C 11,2 C
14.09.2012 16:24 17,5 C 47 % 1011,7 hPa 0,0 l/m 32,3 km/h (5 Bft) N-NW 335 0 min 6,1 C 10,9 C
14.09.2012 16:29 17,2 C 48 % 1011,7 hPa 0,0 l/m 31,8 km/h (5 Bft) N-NW 330 0 min 6,1 C 10,5 C
14.09.2012 16:34 16,9 C 50 % 1011,7 hPa 0,0 l/m 31,0 km/h (5 Bft) N-NW 330 0 min 6,4 C 10,2 C
14.09.2012 16:39 16,8 C 52 % 1011,7 hPa 0,0 l/m 29,3 km/h (5 Bft) N-NW 330 0 min 6,9 C 10,3 C
14.09.2012 16:44 16,7 C 52 % 1011,7 hPa 0,0 l/m 29,1 km/h (5 Bft) N-NW 330 0 min 6,8 C 10,2 C
14.09.2012 16:49 16,6 C 54 % 1011,7 hPa 0,0 l/m 29,0 km/h (5 Bft) N-NW 335 0 min 7,3 C 10,1 C
14.09.2012 16:54 16,4 C 54 % 1011,7 hPa 0,0 l/m 18,3 km/h (3 Bft) N-NW 330 0 min 7,1 C 12,0 C
14.09.2012 16:59 16,4 C 55 % 1011,7 hPa 0,0 l/m 26,0 km/h (4 Bft) N-NW 340 0 min 7,3 C 10,3 C
14.09.2012 17:04 16,4 C 55 % 1011,7 hPa 0,0 l/m 25,3 km/h (4 Bft) N-NW 330 0 min 7,3 C 10,4 C
14.09.2012 17:09 16,3 C 55 % 1011,7 hPa 0,0 l/m 25,3 km/h (4 Bft) N-NW 330 0 min 7,2 C 10,3 C
14.09.2012 17:14 16,1 C 56 % 1010,7 hPa 0,0 l/m 29,5 km/h (5 Bft) N-NW 335 0 min 7,3 C 9,3 C
14.09.2012 17:19 16,1 C 56 % 1011,7 hPa 0,0 l/m 16,2 km/h (3 Bft) N-NW 330 0 min 7,3 C 12,2 C
14.09.2012 17:24 15,9 C 58 % 1011,7 hPa 0,0 l/m 26,0 km/h (4 Bft) N-NW 330 0 min 7,6 C 9,6 C
14.09.2012 17:29 15,7 C 58 % 1011,7 hPa 0,0 l/m 27,1 km/h (4 Bft) N-NW 340 0 min 7,5 C 9,2 C
14.09.2012 17:34 15,7 C 58 % 1011,7 hPa 0,0 l/m 26,3 km/h (4 Bft) N-NW 335 0 min 7,5 C 9,3 C
14.09.2012 17:39 15,4 C 59 % 1011,7 hPa 0,0 l/m 25,4 km/h (4 Bft) N-NW 335 0 min 7,4 C 9,1 C
14.09.2012 17:44 15,4 C 60 % 1011,7 hPa 0,0 l/m 18,5 km/h (3 Bft) N-NW 330 0 min 7,7 C 10,7 C
14.09.2012 17:49 15,4 C 60 % 1011,7 hPa 0,0 l/m 20,4 km/h (4 Bft) NW 320 0 min 7,7 C 10,2 C
14.09.2012 17:54 15,4 C 60 % 1011,7 hPa 0,0 l/m 19,6 km/h (3 Bft) N-NW 330 0 min 7,7 C 10,4 C
14.09.2012 17:59 15,2 C 61 % 1011,7 hPa 0,0 l/m 19,2 km/h (3 Bft) N-NW 340 0 min 7,7 C 10,2 C
14.09.2012 18:04 15,0 C 62 % 1011,7 hPa 0,0 l/m 28,1 km/h (4 Bft) N-NW 340 0 min 7,8 C 8,0 C
14.09.2012 18:09 15,0 C 62 % 1011,7 hPa 0,0 l/m 27,1 km/h (4 Bft) N-NW 335 0 min 7,8 C 8,2 C
14.09.2012 18:14 14,7 C 65 % 1011,7 hPa 0,0 l/m 29,1 km/h (5 Bft) N-NW 340 0 min 8,2 C 7,4 C
14.09.2012 18:19 14,6 C 65 % 1011,7 hPa 0,0 l/m 26,8 km/h (4 Bft) N-NW 335 0 min 8,1 C 7,7 C
14.09.2012 18:24 14,5 C 66 % 1011,7 hPa 0,0 l/m 21,1 km/h (4 Bft) N-NW 340 0 min 8,2 C 8,8 C
14.09.2012 18:29 14,5 C 66 % 1011,7 hPa 0,0 l/m 12,1 km/h (2 Bft) NW 320 0 min 8,2 C 11,7 C
14.09.2012 18:34 14,3 C 67 % 1011,7 hPa 0,0 l/m 21,9 km/h (4 Bft) N-NW 345 0 min 8,3 C 8,4 C
14.09.2012 18:39 14,2 C 68 % 1011,7 hPa 0,0 l/m 19,8 km/h (3 Bft) N-NW 340 0 min 8,4 C 8,8 C
14.09.2012 18:44 14,0 C 69 % 1011,7 hPa 0,0 l/m 22,6 km/h (4 Bft) N-NW 345 0 min 8,4 C 7,8 C
14.09.2012 18:49 13,9 C 70 % 1011,7 hPa 0,0 l/m 17,1 km/h (3 Bft) N-NW 335 0 min 8,5 C 9,2 C
14.09.2012 18:54 13,9 C 71 % 1011,7 hPa 0,0 l/m 15,1 km/h (3 Bft) N-NW 340 0 min 8,7 C 9,8 C
14.09.2012 18:59 13,8 C 72 % 1011,7 hPa 0,0 l/m 17,0 km/h (3 Bft) N-NW 340 0 min 8,8 C 9,1 C
14.09.2012 19:04 13,6 C 73 % 1011,7 hPa 0,0 l/m 23,2 km/h (4 Bft) N-NW 335 0 min 8,9 C 7,1 C
14.09.2012 19:09 13,5 C 74 % 1011,7 hPa 0,0 l/m 19,8 km/h (3 Bft) N-NW 340 0 min 9,0 C 7,9 C
14.09.2012 19:14 13,3 C 75 % 1011,7 hPa 0,0 l/m 11,5 km/h (2 Bft) N-NW 340 0 min 9,0 C 10,5 C
14.09.2012 19:18 13,1 C 77 % 1011,7 hPa 0,0 l/m 21,4 km/h (4 Bft) N-NW 330 0 min 9,2 C 6,9 C
14.09.2012 19:23 12,9 C 78 % 1011,7 hPa 0,0 l/m 10,5 km/h (2 Bft) W-NW 290 0 min 9,2 C 10,5 C
14.09.2012 19:28 12,9 C 78 % 1011,7 hPa 0,0 l/m 7,6 km/h (2 Bft) NW 305 0 min 9,2 C 12,1 C
14.09.2012 19:33 12,9 C 79 % 1011,7 hPa 0,0 l/m 12,1 km/h (2 Bft) W-NW 300 0 min 9,3 C 9,8 C
14.09.2012 19:38 12,7 C 79 % 1011,7 hPa 0,0 l/m 10,1 km/h (2 Bft) NW 325 0 min 9,2 C 10,5 C
14.09.2012 19:43 12,7 C 80 % 1011,7 hPa 0,0 l/m 6,7 km/h (2 Bft) NW 305 0 min 9,3 C 12,5 C
14.09.2012 19:48 12,7 C 81 % 1011,7 hPa 0,0 l/m 11,9 km/h (2 Bft) NW 325 0 min 9,5 C 9,7 C
14.09.2012 19:53 12,7 C 81 % 1011,7 hPa 0,0 l/m 5,0 km/h (1 Bft) W 275 0 min 9,5 C 12,7 C
14.09.2012 19:59 12,7 C 81 % 1011,7 hPa 0,0 l/m 5,4 km/h (1 Bft) W-NW 285 0 min 9,5 C 12,7 C
14.09.2012 20:04 12,9 C 81 % 1011,7 hPa 0,0 l/m 5,0 km/h (1 Bft) W 265 0 min 9,7 C 12,9 C
14.09.2012 20:09 12,8 C 80 % 1011,7 hPa 0,0 l/m 0,6 km/h (0 Bft) W-SW 240 0 min 9,4 C 12,8 C
14.09.2012 20:14 12,8 C 79 % 1011,7 hPa 0,0 l/m 0,4 km/h (0 Bft) W-SW 240 0 min 9,2 C 12,8 C
14.09.2012 20:19 12,9 C 79 % 1011,7 hPa 0,0 l/m 0,8 km/h (0 Bft) W-SW 245 0 min 9,3 C 12,9 C
14.09.2012 20:24 12,9 C 79 % 1011,7 hPa 0,0 l/m 0,0 km/h (0 Bft) W-SW 240 0 min 9,3 C 12,9 C
14.09.2012 20:29 13,0 C 79 % 1011,7 hPa 0,0 l/m 1,4 km/h (1 Bft) W-NW 295 0 min 9,4 C 13,0 C
14.09.2012 20:34 13,0 C 78 % 1011,7 hPa 0,0 l/m 6,1 km/h (2 Bft) W 280 0 min 9,3 C 13,0 C
14.09.2012 20:39 13,0 C 78 % 1011,7 hPa 0,0 l/m 1,6 km/h (1 Bft) NW 320 0 min 9,3 C 13,0 C
14.09.2012 20:44 13,1 C 79 % 1011,7 hPa 0,0 l/m 11,3 km/h (2 Bft) NW 315 0 min 9,5 C 10,4 C
14.09.2012 20:49 13,1 C 80 % 1011,7 hPa 0,0 l/m 10,2 km/h (2 Bft) NW 305 0 min 9,7 C 10,9 C
14.09.2012 20:54 13,1 C 80 % 1011,7 hPa 0,0 l/m 10,4 km/h (2 Bft) W-NW 300 0 min 9,7 C 10,8 C
14.09.2012 20:59 13,1 C 79 % 1011,7 hPa 0,0 l/m 5,2 km/h (1 Bft) W-NW 300 0 min 9,5 C 13,1 C
14.09.2012 21:04 13,1 C 79 % 1011,7 hPa 0,0 l/m 0,0 km/h (0 Bft) W 260 0 min 9,5 C 13,1 C
14.09.2012 21:09 13,1 C 79 % 1011,7 hPa 0,0 l/m 6,9 km/h (2 Bft) W 270 0 min 9,5 C 12,8 C
14.09.2012 21:14 13,1 C 79 % 1011,7 hPa 0,0 l/m 0,4 km/h (0 Bft) W-SW 250 0 min 9,5 C 13,1 C
14.09.2012 21:19 13,1 C 78 % 1011,7 hPa 0,0 l/m 0,0 km/h (0 Bft) W-SW 240 0 min 9,4 C 13,1 C
14.09.2012 21:24 13,1 C 78 % 1011,7 hPa 0,0 l/m 0,6 km/h (0 Bft) W-SW 255 0 min 9,4 C 13,1 C
14.09.2012 21:29 13,1 C 78 % 1011,7 hPa 0,0 l/m 0,3 km/h (0 Bft) W-SW 245 0 min 9,4 C 13,1 C
14.09.2012 21:34 13,2 C 78 % 1011,7 hPa 0,0 l/m 0,4 km/h (0 Bft) W-SW 255 0 min 9,4 C 13,2 C
14.09.2012 21:39 13,2 C 78 % 1011,7 hPa 0,0 l/m 0,7 km/h (0 Bft) W-SW 255 0 min 9,4 C 13,2 C
14.09.2012 21:44 13,2 C 78 % 1011,7 hPa 0,0 l/m 0,3 km/h (0 Bft) SW 235 0 min 9,4 C 13,2 C
14.09.2012 21:49 13,2 C 78 % 1011,7 hPa 0,0 l/m 0,7 km/h (0 Bft) W-SW 250 0 min 9,4 C 13,2 C
14.09.2012 21:54 13,2 C 78 % 1011,7 hPa 0,0 l/m 4,3 km/h (1 Bft) W-SW 255 0 min 9,4 C 13,2 C
14.09.2012 21:59 13,2 C 78 % 1011,7 hPa 0,0 l/m 4,6 km/h (1 Bft) W 260 0 min 9,4 C 13,2 C
14.09.2012 22:04 13,3 C 78 % 1011,7 hPa 0,0 l/m 0,7 km/h (0 Bft) W-SW 255 0 min 9,5 C 13,3 C
14.09.2012 22:09 13,3 C 78 % 1011,7 hPa 0,0 l/m 1,6 km/h (1 Bft) W 265 0 min 9,5 C 13,3 C
14.09.2012 22:14 13,3 C 78 % 1011,7 hPa 0,0 l/m 0,7 km/h (0 Bft) W 260 0 min 9,5 C 13,3 C
14.09.2012 22:19 13,3 C 78 % 1011,7 hPa 0,4 l/m 0,7 km/h (0 Bft) W 260 0 min 9,5 C 13,3 C
14.09.2012 22:24 13,2 C 78 % 1011,7 hPa 0,0 l/m 4,5 km/h (1 Bft) W 275 0 min 9,4 C 13,2 C
14.09.2012 22:29 13,2 C 79 % 1012,7 hPa 0,0 l/m 2,8 km/h (1 Bft) N 350 0 min 9,6 C 13,2 C
14.09.2012 22:34 12,6 C 79 % 1012,7 hPa 0,7 l/m 17,2 km/h (3 Bft) N-NW 340 0 min 9,1 C 7,5 C
14.09.2012 22:39 12,1 C 79 % 1012,7 hPa 0,4 l/m 21,7 km/h (4 Bft) N 350 0 min 8,6 C 5,5 C
14.09.2012 22:44 11,8 C 79 % 1012,7 hPa 0,0 l/m 17,3 km/h (3 Bft) N-NW 335 0 min 8,3 C 6,5 C
14.09.2012 22:49 11,4 C 80 % 1012,7 hPa 0,4 l/m 15,8 km/h (3 Bft) NW 325 0 min 8,1 C 6,5 C
14.09.2012 22:54 11,2 C 80 % 1012,7 hPa 0,0 l/m 0,1 km/h (0 Bft) NW 320 0 min 7,9 C 11,2 C
14.09.2012 22:59 11,2 C 81 % 1012,7 hPa 0,0 l/m 0,3 km/h (0 Bft) N-NW 330 0 min 8,1 C 11,2 C
14.09.2012 23:04 11,1 C 81 % 1012,7 hPa 0,0 l/m 0,0 km/h (0 Bft) W 265 0 min 8,0 C 11,1 C
14.09.2012 23:09 11,1 C 81 % 1012,7 hPa 0,0 l/m 4,0 km/h (1 Bft) W 275 0 min 8,0 C 11,1 C
14.09.2012 23:14 11,1 C 81 % 1012,7 hPa 0,0 l/m 3,4 km/h (1 Bft) W-SW 250 0 min 8,0 C 11,1 C
14.09.2012 23:19 11,1 C 82 % 1012,7 hPa 0,0 l/m 0,0 km/h (0 Bft) W-SW 255 0 min 8,1 C 11,1 C
14.09.2012 23:24 11,1 C 82 % 1012,7 hPa 0,0 l/m 4,0 km/h (1 Bft) W-SW 240 0 min 8,1 C 11,1 C
14.09.2012 23:29 11,0 C 82 % 1012,7 hPa 0,0 l/m 0,1 km/h (0 Bft) SW 235 0 min 8,0 C 11,0 C
14.09.2012 23:34 11,0 C 82 % 1012,7 hPa 0,0 l/m 0,8 km/h (0 Bft) W-SW 250 0 min 8,0 C 11,0 C
14.09.2012 23:39 11,1 C 81 % 1012,7 hPa 0,0 l/m 0,2 km/h (0 Bft) W-SW 240 0 min 8,0 C 11,1 C
14.09.2012 23:44 11,1 C 81 % 1012,7 hPa 0,0 l/m 0,0 km/h (0 Bft) W-SW 240 0 min 8,0 C 11,1 C
14.09.2012 23:48 11,1 C 81 % 1012,7 hPa 0,0 l/m 0,0 km/h (0 Bft) W-SW 240 0 min 8,0 C 11,1 C
14.09.2012 23:54 11,1 C 81 % 1012,7 hPa 0,0 l/m 0,0 km/h (0 Bft) W-SW 240 0 min 8,0 C 11,1 C
14.09.2012 23:59 11,1 C 80 % 1012,7 hPa 0,0 l/m 0,0 km/h (0 Bft) W-SW 240 0 min 7,8 C 11,1 C
_ Min-Zeit 00:04 15:09 17:14 - 00:04 - - - 05:19 08:04
Minimum _ 0,0 C 42 % 1010,7 hPa - 0,0 km/h (0 Bft) - - - 3,8 C 4,5 C
_ Max-Zeit 15:19 07:39 00:04 22:34 12:44 - - 00:04 20:49 15:19
Maximum _ 20,1 C 87 % 1018,7 hPa 0,7 l/m 35,8 km/h
N-NW (5 Bft)
- - 0 min 9,7 C 16,0 C
Durchschnitt _ 12,7 C 70 % 1014,2 hPa #1,8 l/m 12,0 km/h (2 Bft) N-NW - #0 min. 7,0 C 10,1 C